Time;durP1;ratioP1;P1;durP2;ratioP2;P2;SDS_P1;SDS_P2;PMS_P1;PMS_P2;Temp;Humidity;BMP_temperature;BMP_pressure;BME280_temperature;BME280_humidity;BME280_pressure;Samples;Min_cycle;Max_cycle;Signal;HPM_P1;HPM_P2
2021/09/25 00:01:34;;;;;;;18.57;11.73;;;14.50;99.90;;;;;;5248924;28;20237;-71
2021/09/25 00:04:07;;;;;;;16.47;11.10;;;14.50;99.90;;;;;;5249276;28;20215;-73
2021/09/25 00:06:39;;;;;;;15.83;10.70;;;14.60;99.90;;;;;;5249587;28;20556;-74
2021/09/25 00:09:11;;;;;;;13.67;9.50;;;14.60;99.90;;;;;;5248550;28;20204;-74
2021/09/25 00:11:43;;;;;;;17.13;9.90;;;14.60;99.90;;;;;;5249453;28;20224;-72
2021/09/25 00:14:15;;;;;;;17.23;9.67;;;14.60;99.90;;;;;;5248608;28;20215;-72
2021/09/25 00:16:47;;;;;;;13.93;9.90;;;14.70;99.90;;;;;;5248703;28;20253;-71
2021/09/25 00:19:19;;;;;;;13.23;10.10;;;14.60;99.90;;;;;;5249409;28;20672;-74
2021/09/25 00:21:51;;;;;;;15.10;9.27;;;14.70;99.90;;;;;;5248815;28;20307;-72
2021/09/25 00:24:25;;;;;;;13.60;9.53;;;14.60;99.90;;;;;;5249589;28;20652;-69
2021/09/25 00:27:00;;;;;;;12.77;8.67;;;14.70;99.90;;;;;;5248169;28;20232;-70
2021/09/25 00:29:34;;;;;;;11.57;8.03;;;14.70;99.90;;;;;;5247814;28;20204;-70
2021/09/25 00:32:06;;;;;;;13.00;7.73;;;14.60;99.90;;;;;;5249131;28;20504;-74
2021/09/25 00:34:38;;;;;;;10.27;7.53;;;14.60;99.90;;;;;;5249213;28;20548;-71
2021/09/25 00:37:13;;;;;;;12.77;7.20;;;14.60;99.90;;;;;;5248599;28;20282;-74
2021/09/25 00:39:44;;;;;;;12.13;6.93;;;14.60;99.90;;;;;;5249090;28;20200;-73
2021/09/25 00:42:19;;;;;;;12.97;7.03;;;14.70;99.90;;;;;;5248781;28;20211;-71
2021/09/25 00:44:51;;;;;;;10.53;6.33;;;14.70;99.90;;;;;;5248682;28;20212;-75
2021/09/25 00:47:23;;;;;;;9.07;5.93;;;14.70;99.90;;;;;;5248740;28;20212;-69
2021/09/25 00:49:55;;;;;;;9.37;6.10;;;14.80;99.90;;;;;;5247745;28;20205;-70
2021/09/25 00:52:27;;;;;;;10.73;6.20;;;14.80;99.90;;;;;;5248792;28;20204;-73
2021/09/25 00:54:59;;;;;;;9.53;5.90;;;14.80;99.90;;;;;;5248680;28;20217;-72
2021/09/25 00:57:33;;;;;;;8.00;5.80;;;14.80;99.90;;;;;;5248404;28;20236;-69
2021/09/25 01:00:07;;;;;;;8.10;5.90;;;14.80;99.90;;;;;;5248478;28;20189;-69
2021/09/25 01:02:41;;;;;;;11.97;5.73;;;14.80;99.90;;;;;;5247662;28;20205;-73
2021/09/25 01:05:16;;;;;;;6.47;5.27;;;14.90;99.90;;;;;;5248727;28;20189;-72
2021/09/25 01:07:49;;;;;;;6.07;4.77;;;14.90;99.90;;;;;;5248415;28;20212;-71
2021/09/25 01:10:24;;;;;;;6.43;4.43;;;14.90;99.90;;;;;;5248608;28;20215;-70
2021/09/25 01:12:56;;;;;;;4.87;4.10;;;14.90;99.90;;;;;;5248678;28;20208;-73
2021/09/25 01:15:28;;;;;;;8.93;4.70;;;14.90;99.90;;;;;;5248659;28;20220;-69
2021/09/25 01:18:00;;;;;;;6.43;4.50;;;14.90;99.90;;;;;;5248373;28;20252;-73
2021/09/25 01:20:32;;;;;;;5.67;4.13;;;14.90;99.90;;;;;;5247592;28;20283;-69
2021/09/25 01:23:04;;;;;;;7.40;4.20;;;14.90;99.90;;;;;;5248390;28;20227;-74
2021/09/25 01:25:39;;;;;;;5.30;4.07;;;14.80;99.90;;;;;;5247591;28;20217;-71
2021/09/25 01:28:11;;;;;;;5.83;3.87;;;14.80;99.90;;;;;;5248452;28;20589;-69
2021/09/25 01:30:43;;;;;;;6.17;4.30;;;14.80;99.90;;;;;;5248382;28;20213;-68
2021/09/25 01:33:22;;;;;;;4.70;3.50;;;14.80;99.90;;;;;;5248237;28;20217;-70
2021/09/25 01:35:54;;;;;;;3.33;2.97;;;14.80;99.90;;;;;;5248308;28;20223;-69
2021/09/25 01:38:27;;;;;;;5.17;3.50;;;14.70;99.90;;;;;;5249608;28;20225;-70
2021/09/25 01:40:59;;;;;;;3.83;3.00;;;14.70;99.90;;;;;;5251067;28;20197;-69
2021/09/25 01:43:31;;;;;;;4.77;3.10;;;14.70;99.90;;;;;;5251858;28;20204;-71
2021/09/25 01:46:03;;;;;;;3.50;2.90;;;14.70;99.90;;;;;;5251895;28;20217;-70
2021/09/25 01:48:38;;;;;;;5.10;2.97;;;14.70;99.90;;;;;;5252154;28;20613;-71
2021/09/25 01:51:11;;;;;;;3.90;3.30;;;14.70;99.90;;;;;;5251976;28;20211;-71
2021/09/25 01:53:43;;;;;;;4.93;3.10;;;14.70;99.90;;;;;;5252233;28;20498;-69
2021/09/25 01:56:16;;;;;;;4.07;3.07;;;14.70;99.90;;;;;;5251952;28;20563;-71
2021/09/25 01:58:52;;;;;;;4.60;3.10;;;14.70;99.90;;;;;;5251444;28;20683;-72
2021/09/25 02:01:24;;;;;;;4.93;3.60;;;14.70;99.90;;;;;;5250948;28;20339;-71
2021/09/25 02:03:57;;;;;;;6.40;3.47;;;14.70;99.90;;;;;;5250627;28;20204;-72
2021/09/25 02:06:32;;;;;;;5.87;3.30;;;14.70;99.90;;;;;;5251664;28;20225;-70
2021/09/25 02:09:04;;;;;;;5.23;4.10;;;14.70;99.90;;;;;;5251811;28;20219;-73
2021/09/25 02:11:36;;;;;;;4.43;3.37;;;14.70;99.90;;;;;;5251138;28;20212;-73
2021/09/25 02:14:08;;;;;;;4.50;3.40;;;14.80;99.90;;;;;;5251230;28;20207;-71
2021/09/25 02:16:40;;;;;;;4.37;3.57;;;14.70;99.90;;;;;;5251459;28;20497;-72
2021/09/25 02:19:11;;;;;;;4.93;3.70;;;14.80;99.90;;;;;;5251575;28;20201;-71
2021/09/25 02:21:46;;;;;;;4.50;3.43;;;14.70;99.90;;;;;;5251754;28;20204;-71
2021/09/25 02:24:20;;;;;;;6.00;3.90;;;14.70;99.90;;;;;;5250640;28;20211;-73
2021/09/25 02:26:52;;;;;;;5.37;3.80;;;14.70;99.90;;;;;;5251826;28;20571;-72
2021/09/25 02:29:24;;;;;;;4.80;3.77;;;14.70;99.90;;;;;;5250626;28;20228;-73
2021/09/25 02:31:56;;;;;;;5.33;4.27;;;14.70;99.90;;;;;;5251773;28;20229;-71
2021/09/25 02:34:28;;;;;;;5.47;4.30;;;14.80;99.90;;;;;;5251018;28;20201;-68
2021/09/25 02:37:01;;;;;;;6.07;4.50;;;14.80;99.90;;;;;;5251128;28;20248;-71
2021/09/25 02:39:34;;;;;;;7.87;4.60;;;14.80;99.90;;;;;;5250648;28;20197;-69
2021/09/25 02:42:08;;;;;;;9.73;4.70;;;14.80;99.90;;;;;;5250734;28;20239;-69
2021/09/25 02:44:40;;;;;;;7.27;5.03;;;14.80;99.90;;;;;;5250517;28;20215;-73
2021/09/25 02:47:11;;;;;;;7.93;5.73;;;14.80;99.90;;;;;;5249518;28;20229;-71
2021/09/25 02:49:43;;;;;;;7.17;4.90;;;14.80;99.90;;;;;;5250116;28;20204;-70
2021/09/25 02:52:15;;;;;;;7.13;5.10;;;14.80;99.90;;;;;;5250658;28;20252;-69
2021/09/25 02:54:47;;;;;;;6.73;4.93;;;14.80;99.90;;;;;;5250719;28;20551;-70
2021/09/25 02:57:22;;;;;;;8.33;5.60;;;14.80;99.90;;;;;;5250251;28;20236;-69
2021/09/25 02:59:54;;;;;;;8.33;5.43;;;14.80;99.90;;;;;;5250288;28;20200;-71
2021/09/25 03:02:28;;;;;;;6.90;5.03;;;14.90;99.90;;;;;;5250556;28;20565;-69
2021/09/25 03:05:03;;;;;;;7.90;5.20;;;14.90;99.90;;;;;;5249861;28;20651;-69
2021/09/25 03:07:37;;;;;;;6.63;4.50;;;14.90;99.90;;;;;;5249217;28;20232;-72
2021/09/25 03:10:09;;;;;;;6.50;4.90;;;14.90;99.90;;;;;;5249158;28;20204;-71
2021/09/25 03:12:44;;;;;;;5.20;4.10;;;14.90;99.90;;;;;;5248935;28;20233;-73
2021/09/25 03:15:18;;;;;;;6.27;3.87;;;14.90;99.90;;;;;;5249267;28;20207;-70
2021/09/25 03:17:50;;;;;;;5.10;3.97;;;14.90;99.90;;;;;;5249925;28;20243;-70
2021/09/25 03:20:22;;;;;;;5.70;4.20;;;14.90;99.90;;;;;;5250176;28;20214;-68
2021/09/25 03:22:54;;;;;;;5.87;4.23;;;14.90;99.90;;;;;;5249690;28;20271;-68
2021/09/25 03:25:26;;;;;;;5.07;3.70;;;14.90;99.90;;;;;;5249979;28;20604;-72
2021/09/25 03:27:58;;;;;;;6.03;3.80;;;14.90;99.90;;;;;;5248851;28;20224;-73
2021/09/25 03:30:30;;;;;;;4.20;3.37;;;14.90;99.90;;;;;;5249712;28;20228;-70
2021/09/25 03:33:03;;;;;;;3.47;2.50;;;14.90;99.90;;;;;;5250010;28;20526;-71
2021/09/25 03:35:35;;;;;;;4.23;2.80;;;14.90;99.90;;;;;;5250359;28;20514;-70
2021/09/25 03:38:07;;;;;;;5.63;2.80;;;14.90;99.90;;;;;;5248439;28;20229;-71
2021/09/25 03:40:39;;;;;;;3.37;2.60;;;14.90;99.90;;;;;;5249464;28;20200;-70
2021/09/25 03:43:12;;;;;;;3.87;2.80;;;14.80;99.90;;;;;;5249313;28;20232;-70
2021/09/25 03:45:45;;;;;;;3.53;2.13;;;14.80;99.90;;;;;;5248402;28;20200;-70
2021/09/25 03:48:17;;;;;;;4.20;2.47;;;14.80;99.90;;;;;;5248342;28;20332;-70
2021/09/25 03:50:49;;;;;;;5.70;2.40;;;14.70;99.90;;;;;;5249348;28;20216;-71
2021/09/25 03:53:21;;;;;;;4.97;2.60;;;14.70;99.90;;;;;;5248542;28;20243;-69
2021/09/25 03:55:58;;;;;;;4.03;2.30;;;14.60;99.90;;;;;;5250128;28;20216;-74
2021/09/25 03:58:30;;;;;;;5.67;2.90;;;14.60;99.90;;;;;;5248313;28;20232;-71
2021/09/25 04:01:02;;;;;;;5.40;2.60;;;14.60;99.90;;;;;;5248769;28;20577;-70
2021/09/25 04:03:34;;;;;;;4.77;2.67;;;14.60;99.90;;;;;;5248356;28;20385;-67
2021/09/25 04:06:07;;;;;;;4.93;2.73;;;14.60;99.90;;;;;;5249209;28;20189;-70
2021/09/25 04:08:39;;;;;;;5.93;2.60;;;14.60;99.90;;;;;;5249038;28;20239;-69
2021/09/25 04:11:11;;;;;;;6.03;2.83;;;14.70;99.90;;;;;;5249138;28;20223;-73
2021/09/25 04:13:46;;;;;;;6.47;2.90;;;14.70;99.90;;;;;;5249166;28;20240;-71
2021/09/25 04:16:18;;;;;;;5.53;3.00;;;14.70;99.90;;;;;;5249530;28;20208;-70
2021/09/25 04:18:50;;;;;;;6.03;2.83;;;14.70;99.90;;;;;;5249367;28;20513;-73
2021/09/25 04:21:24;;;;;;;7.50;2.60;;;14.70;99.90;;;;;;5251022;28;20208;-70
2021/09/25 04:23:56;;;;;;;7.13;2.77;;;14.70;99.90;;;;;;5249732;28;20224;-70
2021/09/25 04:26:28;;;;;;;5.70;2.87;;;14.70;99.90;;;;;;5248008;28;20215;-70
2021/09/25 04:29:00;;;;;;;6.70;3.30;;;14.70;99.90;;;;;;5248928;28;20224;-70
2021/09/25 04:31:35;;;;;;;5.60;3.00;;;14.80;99.90;;;;;;5248133;28;20213;-70
2021/09/25 04:34:08;;;;;;;6.40;2.97;;;14.80;99.90;;;;;;5248073;28;20232;-71
2021/09/25 04:36:40;;;;;;;6.50;2.80;;;14.80;99.90;;;;;;5248661;28;20204;-72
2021/09/25 04:39:12;;;;;;;5.47;2.57;;;14.80;99.90;;;;;;5247815;28;20244;-70
2021/09/25 04:41:44;;;;;;;10.03;2.97;;;14.80;99.90;;;;;;5248195;28;20217;-72
2021/09/25 04:44:16;;;;;;;6.40;2.47;;;14.80;99.90;;;;;;5247660;28;20228;-73
2021/09/25 04:46:48;;;;;;;3.90;2.43;;;14.80;99.90;;;;;;5249067;28;20278;-71
2021/09/25 04:49:23;;;;;;;4.47;2.50;;;14.80;99.90;;;;;;5248861;28;20245;-69
2021/09/25 04:51:55;;;;;;;4.57;2.30;;;14.80;99.90;;;;;;5248511;28;20218;-71
2021/09/25 04:54:27;;;;;;;5.67;2.40;;;14.80;99.90;;;;;;5247678;28;20243;-72
2021/09/25 04:56:59;;;;;;;5.97;2.43;;;14.80;99.90;;;;;;5248957;28;20193;-70
2021/09/25 04:59:31;;;;;;;6.50;2.20;;;14.80;99.90;;;;;;5247598;28;20232;-71
2021/09/25 05:02:03;;;;;;;6.43;2.33;;;14.80;99.90;;;;;;5247591;28;20228;-71
2021/09/25 05:04:36;;;;;;;6.80;2.87;;;14.80;99.90;;;;;;5248483;28;20200;-71
2021/09/25 05:07:12;;;;;;;5.80;2.67;;;14.80;99.90;;;;;;5248626;28;20209;-70
2021/09/25 05:09:44;;;;;;;7.60;3.20;;;14.90;99.90;;;;;;5247442;28;20193;-72
2021/09/25 05:12:17;;;;;;;5.60;2.40;;;14.90;99.90;;;;;;5250121;28;20193;-69
2021/09/25 05:14:48;;;;;;;8.03;2.90;;;15.00;99.90;;;;;;5252926;28;20205;-72
2021/09/25 05:17:21;;;;;;;5.47;2.60;;;15.10;99.90;;;;;;5252781;28;20493;-70
2021/09/25 05:19:55;;;;;;;6.73;2.80;;;15.10;99.90;;;;;;5252640;28;20201;-69
2021/09/25 05:22:27;;;;;;;5.27;2.77;;;15.10;99.90;;;;;;5252948;28;20192;-72
2021/09/25 05:25:01;;;;;;;6.43;2.53;;;15.10;99.90;;;;;;5252458;28;20201;-73
2021/09/25 05:27:33;;;;;;;5.00;2.60;;;15.20;99.90;;;;;;5253559;28;20200;-69
2021/09/25 05:30:07;;;;;;;8.53;3.00;;;15.20;99.90;;;;;;5254453;28;20204;-73
2021/09/25 05:32:38;;;;;;;7.30;2.63;;;15.30;99.90;;;;;;5254039;28;20651;-75
2021/09/25 05:35:10;;;;;;;6.03;2.70;;;15.30;99.90;;;;;;5252154;28;20208;-70
2021/09/25 05:37:42;;;;;;;7.27;2.37;;;15.30;99.90;;;;;;5254035;28;20228;-71
2021/09/25 05:40:14;;;;;;;6.03;2.57;;;15.40;99.90;;;;;;5252844;28;20205;-72
2021/09/25 05:42:47;;;;;;;5.53;2.60;;;15.40;99.90;;;;;;5252737;28;20242;-70
2021/09/25 05:45:19;;;;;;;6.73;2.43;;;15.40;99.90;;;;;;5251422;28;20201;-69
2021/09/25 05:47:54;;;;;;;5.53;2.43;;;15.50;99.90;;;;;;5251357;28;20209;-70
2021/09/25 05:50:26;;;;;;;5.57;2.30;;;15.50;99.90;;;;;;5252073;28;20663;-72
2021/09/25 05:52:59;;;;;;;7.30;2.43;;;15.50;99.90;;;;;;5251649;28;20255;-72
2021/09/25 05:55:31;;;;;;;5.47;2.33;;;15.60;99.90;;;;;;5251842;28;20212;-72
2021/09/25 05:58:03;;;;;;;5.20;2.40;;;15.60;99.90;;;;;;5251962;28;20225;-71
2021/09/25 06:00:35;;;;;;;4.63;2.10;;;15.70;99.90;;;;;;5251719;28;20325;-71
2021/09/25 06:03:12;;;;;;;5.53;1.73;;;15.70;99.90;;;;;;5251758;28;20180;-71
2021/09/25 06:05:44;;;;;;;6.47;2.40;;;15.80;99.90;;;;;;5251517;28;20562;-72
2021/09/25 06:08:16;;;;;;;7.23;2.80;;;15.90;99.90;;;;;;5251935;28;20209;-72
2021/09/25 06:10:48;;;;;;;8.43;2.37;;;16.00;99.90;;;;;;5250686;28;20228;-71
2021/09/25 06:13:23;;;;;;;5.57;2.23;;;16.10;99.90;;;;;;5250224;28;20216;-74
2021/09/25 06:15:54;;;;;;;5.07;2.20;;;16.30;99.90;;;;;;5251899;28;20209;-72
2021/09/25 06:18:27;;;;;;;4.63;1.90;;;16.50;99.90;;;;;;5251600;28;20732;-70
2021/09/25 06:21:01;;;;;;;5.97;2.13;;;16.60;99.90;;;;;;5251300;28;20205;-71
2021/09/25 06:23:33;;;;;;;5.50;2.03;;;16.70;99.90;;;;;;5250579;28;20220;-69
2021/09/25 06:26:08;;;;;;;6.23;2.33;;;16.60;99.90;;;;;;5251484;28;20209;-70
2021/09/25 06:28:46;;;;;;;3.13;1.97;;;16.50;99.90;;;;;;5251366;28;20228;-72
2021/09/25 06:31:21;;;;;;;5.67;2.20;;;16.50;99.90;;;;;;5250322;28;20186;-71
2021/09/25 06:33:53;;;;;;;5.87;2.40;;;16.40;99.90;;;;;;5249990;28;20192;-70
2021/09/25 06:36:25;;;;;;;3.37;2.10;;;16.30;99.90;;;;;;5251409;28;20212;-68
2021/09/25 06:38:57;;;;;;;4.63;2.27;;;16.20;99.90;;;;;;5251392;28;20221;-68
2021/09/25 06:41:31;;;;;;;4.57;2.07;;;16.20;99.90;;;;;;5249929;28;20197;-68
2021/09/25 06:44:04;;;;;;;5.50;2.03;;;16.20;99.90;;;;;;5249987;28;20193;-69
2021/09/25 06:46:36;;;;;;;3.30;2.03;;;16.20;99.90;;;;;;5250750;28;20208;-70
2021/09/25 06:49:08;;;;;;;7.90;2.40;;;16.20;99.90;;;;;;5250596;28;20207;-71
2021/09/25 06:51:40;;;;;;;5.63;2.43;;;16.30;99.90;;;;;;5250988;28;20215;-70
2021/09/25 06:54:12;;;;;;;5.27;2.40;;;16.30;99.90;;;;;;5249769;28;20205;-71
2021/09/25 06:56:44;;;;;;;9.37;2.57;;;16.40;99.90;;;;;;5250741;28;20212;-69
2021/09/25 06:59:16;;;;;;;9.47;2.20;;;16.40;99.90;;;;;;5249146;28;20244;-70
2021/09/25 07:01:48;;;;;;;7.07;2.40;;;16.50;99.90;;;;;;5250515;28;20244;-72
2021/09/25 07:04:24;;;;;;;4.67;1.97;;;16.60;99.90;;;;;;5250456;28;20236;-70
2021/09/25 07:06:57;;;;;;;6.23;2.30;;;16.70;99.90;;;;;;5250988;28;20296;-72
2021/09/25 07:09:29;;;;;;;5.60;2.40;;;16.70;99.90;;;;;;5251339;28;20680;-72
2021/09/25 07:12:03;;;;;;;7.17;2.07;;;16.80;99.90;;;;;;5252714;28;20651;-70
2021/09/25 07:14:35;;;;;;;5.10;1.90;;;16.70;99.90;;;;;;5251325;28;20238;-69
2021/09/25 07:17:07;;;;;;;6.73;2.33;;;16.60;99.90;;;;;;5251178;28;20516;-68
2021/09/25 07:19:39;;;;;;;4.83;2.20;;;16.60;99.90;;;;;;5250649;28;20543;-69
2021/09/25 07:22:12;;;;;;;7.60;2.40;;;16.50;99.90;;;;;;5251261;28;20212;-70
2021/09/25 07:24:45;;;;;;;7.87;2.70;;;16.50;99.90;;;;;;5249523;28;20224;-68
2021/09/25 07:27:19;;;;;;;6.73;2.50;;;16.50;99.90;;;;;;5250136;28;20205;-69
2021/09/25 07:29:51;;;;;;;6.40;2.70;;;16.50;99.90;;;;;;5249788;28;20240;-67
2021/09/25 07:32:24;;;;;;;8.40;2.40;;;16.50;99.90;;;;;;5250380;28;20209;-69
2021/09/25 07:34:56;;;;;;;7.43;2.53;;;16.50;99.90;;;;;;5250139;28;20236;-67
2021/09/25 07:37:27;;;;;;;9.10;2.50;;;16.60;99.90;;;;;;5249144;28;20208;-67
2021/09/25 07:40:04;;;;;;;8.50;2.60;;;16.80;99.90;;;;;;5250504;28;20228;-68
2021/09/25 07:42:36;;;;;;;7.43;2.33;;;16.90;99.90;;;;;;5250962;28;20205;-66
2021/09/25 07:45:08;;;;;;;5.30;1.83;;;16.90;99.90;;;;;;5250108;28;20225;-67
2021/09/25 07:47:43;;;;;;;5.73;2.50;;;16.90;99.90;;;;;;5250608;28;20208;-67
2021/09/25 07:50:21;;;;;;;5.13;2.30;;;17.00;99.90;;;;;;5248727;28;20664;-72
2021/09/25 07:52:56;;;;;;;7.23;2.40;;;17.00;99.90;;;;;;5248872;28;20570;-67
2021/09/25 07:55:28;;;;;;;4.07;1.90;;;17.00;99.90;;;;;;5248212;28;20593;-71
2021/09/25 07:58:00;;;;;;;6.03;2.27;;;17.00;99.90;;;;;;5249540;28;20213;-67
2021/09/25 08:00:32;;;;;;;5.30;1.90;;;17.10;99.90;;;;;;5248877;28;20294;-69
2021/09/25 08:03:05;;;;;;;12.67;2.93;;;17.20;99.90;;;;;;5249690;28;20201;-68
2021/09/25 08:05:41;;;;;;;4.93;2.47;;;17.20;99.90;;;;;;5249738;28;20290;-68
2021/09/25 08:08:13;;;;;;;4.60;2.17;;;17.20;99.90;;;;;;5249906;28;20204;-67
2021/09/25 08:10:45;;;;;;;7.47;2.40;;;17.10;99.90;;;;;;5249535;28;20224;-71
2021/09/25 08:13:20;;;;;;;7.27;2.27;;;16.90;99.90;;;;;;5249408;28;20212;-71
2021/09/25 08:15:53;;;;;;;5.20;2.17;;;16.90;99.90;;;;;;5249703;28;20699;-72
2021/09/25 08:18:26;;;;;;;6.83;2.70;;;17.00;99.90;;;;;;5248773;28;20235;-68
2021/09/25 08:20:58;;;;;;;8.23;2.43;;;17.20;99.90;;;;;;5249550;28;20224;-67
2021/09/25 08:23:30;;;;;;;9.87;2.63;;;17.50;99.90;;;;;;5232146;28;20216;-72
2021/09/25 08:26:03;;;;;;;7.07;3.10;;;17.80;99.90;;;;;;5248490;28;20228;-67
2021/09/25 08:28:35;;;;;;;5.30;2.30;;;17.90;99.90;;;;;;5249706;28;20236;-66
2021/09/25 08:31:07;;;;;;;7.40;2.50;;;17.90;99.90;;;;;;5247827;28;20243;-72
2021/09/25 08:33:39;;;;;;;8.40;2.40;;;17.80;99.90;;;;;;5249384;28;20244;-71
2021/09/25 08:36:12;;;;;;;8.30;2.58;;;17.70;99.90;;;;;;5249084;28;20244;-71
2021/09/25 08:39:03;;;;;;;6.10;2.25;;;17.60;99.90;;;;;;5249054;28;20220;-69
2021/09/25 08:41:37;;;;;;;7.20;2.63;;;17.50;99.90;;;;;;5249135;28;20224;-68
2021/09/25 08:44:09;;;;;;;5.43;2.23;;;17.50;99.90;;;;;;5249354;28;20515;-68
2021/09/25 08:46:42;;;;;;;6.93;2.10;;;17.50;99.90;;;;;;5248713;28;20676;-72
2021/09/25 08:49:14;;;;;;;7.85;2.30;;;17.80;99.90;;;;;;5252691;28;20255;-68
2021/09/25 08:51:46;;;;;;;6.45;2.35;;;17.90;99.90;;;;;;5253279;28;20234;-67
2021/09/25 08:54:18;;;;;;;6.55;2.38;;;18.00;99.90;;;;;;5251670;28;20644;-68
2021/09/25 08:56:50;;;;;;;6.80;2.50;;;18.30;99.90;;;;;;5285336;27;20523;-67
2021/09/25 08:59:22;;;;;;;7.07;2.13;;;18.60;99.90;;;;;;5255135;28;20223;-69
2021/09/25 09:01:54;;;;;;;6.32;2.30;;;18.60;99.90;;;;;;5256149;28;20675;-71
2021/09/25 09:04:40;;;;;;;6.28;2.42;;;18.60;99.90;;;;;;5253047;28;20198;-70
2021/09/25 09:07:19;;;;;;;5.07;2.00;;;18.60;99.90;;;;;;5265983;28;20224;-69
2021/09/25 09:09:58;;;;;;;6.85;2.45;;;18.40;99.90;;;;;;5256814;28;20229;-74
2021/09/25 09:12:30;;;;;;;7.60;2.40;;;18.10;99.90;;;;;;5266463;28;20378;-70
2021/09/25 09:15:02;;;;;;;5.97;2.30;;;17.90;99.90;;;;;;5264015;28;20200;-70
2021/09/25 09:17:37;;;;;;;6.10;2.00;;;17.90;99.90;;;;;;5256167;28;20256;-69
2021/09/25 09:20:10;;;;;;;7.15;2.20;;;17.90;99.90;;;;;;5255363;28;20243;-71
2021/09/25 09:22:42;;;;;;;9.55;2.58;;;17.90;99.90;;;;;;5263667;28;20227;-70
2021/09/25 09:25:18;;;;;;;5.27;2.13;;;17.80;99.90;;;;;;5254852;28;20201;-70
2021/09/25 09:27:50;;;;;;;6.97;1.95;;;17.80;99.90;;;;;;5252854;28;20565;-69
2021/09/25 09:30:22;;;;;;;11.20;2.38;;;17.90;99.90;;;;;;5252163;28;20575;-69
2021/09/25 09:32:54;;;;;;;6.88;2.22;;;18.00;99.90;;;;;;5262882;28;20204;-70
2021/09/25 09:35:28;;;;;;;6.57;1.90;;;18.20;99.90;;;;;;5258433;28;20219;-67
2021/09/25 09:38:00;;;;;;;5.40;1.80;;;18.40;99.90;;;;;;5268898;28;20600;-73
2021/09/25 09:40:32;;;;;;;5.00;2.20;;;18.30;99.90;;;;;;5251779;28;20512;-68
2021/09/25 09:43:10;;;;;;;7.93;1.95;;;18.20;99.90;;;;;;5252132;28;20275;-72
2021/09/25 09:45:42;;;;;;;8.88;1.70;;;18.10;99.90;;;;;;5252399;28;20200;-68
2021/09/25 09:48:19;;;;;;;8.02;2.83;;;18.00;99.90;;;;;;5251426;28;20530;-68
2021/09/25 09:50:57;;;;;;;9.32;2.97;;;17.90;99.90;;;;;;5253711;28;20208;-66
2021/09/25 09:53:49;;;;;;;8.43;2.13;;;18.10;99.90;;;;;;5252792;28;20232;-71
2021/09/25 09:56:23;;;;;;;8.30;2.33;;;18.20;99.90;;;;;;5252396;28;20223;-70
2021/09/25 09:59:00;;;;;;;7.20;2.20;;;18.30;99.90;;;;;;5249912;28;20236;-68
2021/09/25 10:01:32;;;;;;;7.32;2.03;;;18.30;99.90;;;;;;5251956;28;20232;-69
2021/09/25 10:04:06;;;;;;;4.68;1.77;;;18.30;99.90;;;;;;5251687;28;20323;-69
2021/09/25 10:06:41;;;;;;;9.95;2.35;;;18.30;99.90;;;;;;5252294;28;20200;-70
2021/09/25 10:09:27;;;;;;;6.85;2.55;;;18.30;99.90;;;;;;5251567;28;20277;-67
2021/09/25 10:12:02;;;;;;;9.13;2.38;;;18.30;99.90;;;;;;5251611;28;20200;-68
2021/09/25 10:14:38;;;;;;;12.38;2.58;;;18.40;99.90;;;;;;5251612;28;20232;-68
2021/09/25 10:17:12;;;;;;;8.27;1.98;;;18.40;99.90;;;;;;5250043;28;20209;-71
2021/09/25 10:19:48;;;;;;;8.00;1.70;;;18.40;99.90;;;;;;5250402;28;20240;-69
2021/09/25 10:22:24;;;;;;;7.88;2.03;;;18.30;99.90;;;;;;5249860;28;20195;-72
2021/09/25 10:24:58;;;;;;;8.68;2.10;;;18.30;99.90;;;;;;5251489;28;20311;-72
2021/09/25 10:27:39;;;;;;;6.25;1.92;;;18.20;99.90;;;;;;5250438;28;20200;-69
2021/09/25 10:30:12;;;;;;;7.03;1.80;;;18.20;99.90;;;;;;5250480;28;20738;-72
2021/09/25 10:32:51;;;;;;;5.80;1.90;;;18.20;99.90;;;;;;5251461;28;20205;-74
2021/09/25 10:35:26;;;;;;;8.73;2.00;;;18.30;99.90;;;;;;5250279;28;20315;-72
2021/09/25 10:38:01;;;;;;;4.13;1.65;;;18.40;99.90;;;;;;5250991;28;20192;-69
2021/09/25 10:40:55;;;;;;;6.70;1.80;;;18.60;99.90;;;;;;5249954;28;20636;-70
2021/09/25 10:43:27;;;;;;;7.88;1.90;;;18.70;99.90;;;;;;5250894;28;20215;-70
2021/09/25 10:46:03;;;;;;;5.38;1.50;;;18.80;99.90;;;;;;5249878;28;20200;-69
2021/09/25 10:48:49;;;;;;;5.85;1.95;;;18.80;99.90;;;;;;5250662;28;20185;-71
2021/09/25 10:51:21;;;;;;;7.55;1.70;;;18.70;99.90;;;;;;5250662;28;20203;-74
2021/09/25 10:54:02;;;;;;;7.28;1.73;;;18.60;99.90;;;;;;5251058;28;20209;-68
2021/09/25 10:56:46;;;;;;;7.50;1.65;;;18.50;99.90;;;;;;5250769;28;20229;-72
2021/09/25 10:59:18;;;;;;;5.10;1.58;;;18.40;99.90;;;;;;5250542;28;20216;-72
2021/09/25 11:01:56;;;;;;;6.20;1.65;;;18.40;99.90;;;;;;5250410;28;20237;-69
2021/09/25 11:04:33;;;;;;;5.18;1.88;;;18.50;99.90;;;;;;5251233;28;20193;-70
2021/09/25 11:07:08;;;;;;;6.13;1.52;;;18.60;99.90;;;;;;5250946;28;20204;-69
2021/09/25 11:09:44;;;;;;;6.15;1.50;;;18.70;99.90;;;;;;5250204;28;20220;-70
2021/09/25 11:12:17;;;;;;;7.43;1.50;;;18.80;99.90;;;;;;5233473;28;20192;-68
2021/09/25 11:14:56;;;;;;;5.00;1.25;;;19.00;99.90;;;;;;5250023;28;20240;-71
2021/09/25 11:17:28;;;;;;;6.25;1.40;;;19.20;99.90;;;;;;5250106;28;20201;-74
2021/09/25 11:20:08;;;;;;;4.28;1.30;;;19.30;99.90;;;;;;5248654;28;20221;-70
2021/09/25 11:22:47;;;;;;;6.55;1.67;;;19.20;99.90;;;;;;5250074;28;20188;-73
2021/09/25 11:25:22;;;;;;;5.82;1.63;;;19.00;99.90;;;;;;5250230;28;20636;-72
2021/09/25 11:27:55;;;;;;;5.18;1.80;;;18.70;99.90;;;;;;5249367;28;20225;-70
2021/09/25 11:30:29;;;;;;;6.93;1.67;;;18.30;99.90;;;;;;5248543;28;20228;-71
2021/09/25 11:33:05;;;;;;;5.13;1.48;;;18.00;99.90;;;;;;5248895;28;20214;-68
2021/09/25 11:35:38;;;;;;;7.80;2.15;;;17.80;99.90;;;;;;5250032;28;20640;-71
2021/09/25 11:38:15;;;;;;;6.07;1.73;;;17.70;99.90;;;;;;5250169;28;20215;-69
2021/09/25 11:40:52;;;;;;;7.82;2.13;;;17.60;99.90;;;;;;5249253;28;20243;-70
2021/09/25 11:43:24;;;;;;;9.17;2.00;;;17.60;99.90;;;;;;5250283;28;20557;-72
2021/09/25 11:45:58;;;;;;;8.13;1.77;;;17.60;99.90;;;;;;5250098;28;20225;-71
2021/09/25 11:48:32;;;;;;;6.85;1.73;;;17.60;99.90;;;;;;5249629;28;20200;-69
2021/09/25 11:51:05;;;;;;;4.53;2.20;;;17.70;99.90;;;;;;5249599;28;20234;-68
2021/09/25 11:53:44;;;;;;;5.47;1.85;;;17.80;99.90;;;;;;5250081;28;20208;-71
2021/09/25 11:56:25;;;;;;;7.25;1.70;;;17.90;99.90;;;;;;5248608;28;20285;-69
2021/09/25 11:58:59;;;;;;;9.53;2.17;;;18.00;99.90;;;;;;5250269;28;20204;-68
2021/09/25 12:01:37;;;;;;;5.18;1.83;;;18.00;99.90;;;;;;5249067;28;20232;-71
2021/09/25 12:04:09;;;;;;;9.45;2.15;;;18.10;99.90;;;;;;5249491;28;20204;-68
2021/09/25 12:06:55;;;;;;;8.45;2.03;;;18.10;99.90;;;;;;5250742;28;20232;-71
2021/09/25 12:09:45;;;;;;;8.25;1.95;;;18.20;99.90;;;;;;5249952;28;20205;-68
2021/09/25 12:12:26;;;;;;;6.85;2.03;;;18.10;99.90;;;;;;5250606;28;20229;-69
2021/09/25 12:15:20;;;;;;;9.40;2.00;;;18.00;99.90;;;;;;5250260;28;20208;-70
2021/09/25 12:18:15;;;;;;;7.10;1.80;;;17.90;99.90;;;;;;5250026;28;20203;-68
2021/09/25 12:20:53;;;;;;;9.98;2.15;;;17.80;99.90;;;;;;5253362;28;20217;-70
2021/09/25 12:23:35;;;;;;;8.38;2.30;;;17.60;99.90;;;;;;5252171;28;20189;-70
2021/09/25 12:26:14;;;;;;;8.00;2.25;;;17.60;99.90;;;;;;5248935;28;20181;-69
2021/09/25 12:28:51;;;;;;;8.88;2.25;;;17.50;99.90;;;;;;5249753;28;20569;-70
2021/09/25 12:31:28;;;;;;;7.67;2.13;;;17.60;99.90;;;;;;5249840;28;20242;-71
2021/09/25 12:34:02;;;;;;;10.20;2.22;;;17.60;99.90;;;;;;5249492;28;20192;-70
2021/09/25 12:36:39;;;;;;;7.77;2.07;;;17.70;99.90;;;;;;5249300;28;20259;-71
2021/09/25 12:39:14;;;;;;;10.70;2.88;;;17.80;99.90;;;;;;5249052;28;20244;-69
2021/09/25 12:41:52;;;;;;;13.38;2.85;;;17.80;99.90;;;;;;5249362;28;20591;-70
2021/09/25 12:44:27;;;;;;;11.27;2.25;;;18.00;99.90;;;;;;5249112;28;20212;-72
2021/09/25 12:47:02;;;;;;;10.05;2.58;;;18.00;99.90;;;;;;5247682;28;20268;-70
2021/09/25 12:49:35;;;;;;;10.50;2.40;;;18.00;99.90;;;;;;5248843;28;20358;-70
2021/09/25 12:52:07;;;;;;;14.40;3.33;;;17.90;99.90;;;;;;5248907;28;20278;-71
2021/09/25 12:54:45;;;;;;;6.82;2.30;;;17.80;99.90;;;;;;5248913;28;20220;-69
2021/09/25 12:57:20;;;;;;;11.55;2.30;;;17.80;99.90;;;;;;5249339;28;20229;-72
2021/09/25 13:00:01;;;;;;;9.20;2.53;;;17.80;99.90;;;;;;5248655;28;20224;-68
2021/09/25 13:02:33;;;;;;;12.70;2.28;;;18.00;99.90;;;;;;5249124;28;20312;-72
2021/09/25 13:05:14;;;;;;;10.85;2.78;;;18.10;99.90;;;;;;5248669;28;20211;-71
2021/09/25 13:07:46;;;;;;;9.38;2.50;;;18.20;99.90;;;;;;5248443;28;20580;-69
2021/09/25 13:10:28;;;;;;;10.40;2.90;;;18.30;99.90;;;;;;5249204;28;20848;-69
2021/09/25 13:13:00;;;;;;;8.55;2.67;;;18.30;99.90;;;;;;5248028;28;20747;-74
2021/09/25 13:15:39;;;;;;;8.32;2.78;;;18.50;99.90;;;;;;5248415;28;20590;-73
2021/09/25 13:18:12;;;;;;;9.48;1.95;;;18.60;99.90;;;;;;5248432;28;20224;-69
2021/09/25 13:20:44;;;;;;;9.75;2.42;;;18.60;99.90;;;;;;5249525;28;20235;-73